Time;durP1;ratioP1;P1;durP2;ratioP2;P2;SDS_P1;SDS_P2;PMS_P1;PMS_P2;Temp;Humidity;BMP_temperature;BMP_pressure;BME280_temperature;BME280_humidity;BME280_pressure;Samples;Min_cycle;Max_cycle;Signal;HPM_P1;HPM_P2
2021/05/19 00:00:35;;;;;;;11.40;9.17;;;13.30;70.40;;;;;;5121048;28;20567;-83
2021/05/19 00:03:01;;;;;;;13.13;8.53;;;13.40;70.40;;;;;;5123176;28;20199;-83
2021/05/19 00:05:27;;;;;;;9.50;8.13;;;13.30;70.50;;;;;;5124888;28;20201;-82
2021/05/19 00:07:52;;;;;;;10.10;8.73;;;13.30;70.60;;;;;;5126597;28;20175;-83
2021/05/19 00:10:18;;;;;;;8.03;7.23;;;13.30;70.60;;;;;;5135397;28;20175;-84
2021/05/19 00:12:44;;;;;;;10.83;7.97;;;13.10;70.70;;;;;;5140999;28;20179;-84
2021/05/19 00:15:10;;;;;;;10.70;6.90;;;13.00;71.10;;;;;;5132962;28;20220;-83
2021/05/19 00:17:43;;;;;;;9.65;8.55;;;13.00;71.00;;;;;;5129582;28;20163;-84
2021/05/19 00:20:12;;;;;;;9.85;6.60;;;13.10;71.20;;;;;;5122052;28;20654;-83
2021/05/19 00:22:38;;;;;;;8.65;7.75;;;13.20;71.00;;;;;;5121288;28;20258;-83
2021/05/19 00:25:05;;;;;;;9.93;8.25;;;13.10;70.90;;;;;;5123019;28;20201;-84
2021/05/19 00:27:31;;;;;;;9.65;7.60;;;13.00;70.70;;;;;;5122474;28;20522;-83
2021/05/19 00:29:57;;;;;;;13.40;7.37;;;12.90;71.10;;;;;;5122346;28;20207;-84
2021/05/19 00:32:23;;;;;;;9.60;7.60;;;12.90;71.40;;;;;;5124662;28;20429;-83
2021/05/19 00:34:49;;;;;;;9.03;7.30;;;13.00;71.30;;;;;;5124972;28;20198;-83
2021/05/19 00:37:18;;;;;;;8.98;7.15;;;13.00;71.10;;;;;;5137559;28;20485;-84
2021/05/19 00:39:45;;;;;;;8.73;7.82;;;13.00;71.90;;;;;;5139666;28;20195;-83
2021/05/19 00:42:15;;;;;;;15.50;8.20;;;13.00;71.10;;;;;;5140007;28;20230;-84
2021/05/19 00:44:42;;;;;;;14.98;7.38;;;12.80;71.20;;;;;;5128648;28;20179;-84
2021/05/19 00:47:07;;;;;;;13.00;9.20;;;12.90;71.40;;;;;;5122546;28;20179;-84
2021/05/19 00:49:33;;;;;;;8.20;7.40;;;12.70;71.60;;;;;;5125980;28;20195;-82
2021/05/19 00:51:59;;;;;;;9.13;6.70;;;12.70;71.80;;;;;;5126446;28;20447;-82
2021/05/19 00:54:25;;;;;;;15.13;7.83;;;12.60;71.90;;;;;;5124993;28;20420;-83
2021/05/19 00:56:52;;;;;;;12.40;7.28;;;12.70;71.90;;;;;;5125155;28;20437;-82
2021/05/19 00:59:19;;;;;;;12.65;8.40;;;12.90;71.40;;;;;;5123256;28;20203;-83
2021/05/19 01:01:45;;;;;;;9.57;6.60;;;12.70;71.20;;;;;;5122003;28;20285;-84
2021/05/19 01:04:12;;;;;;;9.40;7.28;;;12.70;71.30;;;;;;5116805;28;20567;-83
2021/05/19 01:11:49;;;;;;;14.30;7.82;;;12.60;71.10;;;;;;5124437;28;20242;-82
2021/05/19 01:14:14;;;;;;;9.83;7.20;;;12.40;71.50;;;;;;5123627;28;20203;-82
2021/05/19 01:16:41;;;;;;;14.40;7.03;;;12.30;71.90;;;;;;5121195;28;20210;-84
2021/05/19 01:19:07;;;;;;;11.10;7.50;;;12.30;72.20;;;;;;5121213;28;21014;-83
2021/05/19 01:21:34;;;;;;;12.05;7.55;;;12.30;72.40;;;;;;5122195;28;20591;-83
2021/05/19 01:24:05;;;;;;;10.90;6.57;;;12.30;72.60;;;;;;5121713;28;20195;-83
2021/05/19 01:26:31;;;;;;;9.75;8.75;;;12.30;72.30;;;;;;5123141;28;20250;-82
2021/05/19 01:28:56;;;;;;;8.23;6.27;;;12.30;72.30;;;;;;5123713;28;20227;-82
2021/05/19 01:31:22;;;;;;;10.10;6.30;;;12.30;72.40;;;;;;5122436;28;20183;-83
2021/05/19 01:33:49;;;;;;;9.97;6.50;;;12.30;72.50;;;;;;5124193;28;20188;-83
2021/05/19 01:36:16;;;;;;;14.77;7.18;;;12.30;72.30;;;;;;5122857;28;20444;-84
2021/05/19 01:38:43;;;;;;;7.20;5.30;;;12.20;72.30;;;;;;5121721;28;20262;-84
2021/05/19 01:41:09;;;;;;;11.45;6.35;;;12.20;72.40;;;;;;5119620;28;20664;-83
2021/05/19 01:43:36;;;;;;;19.97;6.20;;;12.20;72.40;;;;;;5122761;28;20199;-83
2021/05/19 01:46:03;;;;;;;8.50;6.85;;;12.20;72.60;;;;;;5124425;28;20167;-83
2021/05/19 01:48:32;;;;;;;9.80;5.80;;;12.20;72.50;;;;;;5131705;28;20183;-83
2021/05/19 01:50:58;;;;;;;15.23;5.65;;;12.20;72.50;;;;;;5125972;28;20182;-83
2021/05/19 01:53:28;;;;;;;7.60;5.40;;;12.20;72.70;;;;;;5121114;28;20203;-82
2021/05/19 01:55:55;;;;;;;8.25;6.00;;;12.10;72.50;;;;;;5121606;28;20179;-83
2021/05/19 01:58:21;;;;;;;8.55;5.65;;;12.00;72.60;;;;;;5122088;28;20201;-83
2021/05/19 02:00:47;;;;;;;10.75;5.75;;;12.10;72.80;;;;;;5121324;28;20227;-82
2021/05/19 02:03:13;;;;;;;8.67;5.17;;;12.00;72.80;;;;;;5120791;28;20214;-84
2021/05/19 02:05:39;;;;;;;7.80;4.97;;;12.00;72.90;;;;;;5121266;28;20167;-83
2021/05/19 02:08:09;;;;;;;10.65;5.50;;;12.00;73.00;;;;;;5122827;28;20405;-83
2021/05/19 02:10:36;;;;;;;11.32;5.03;;;11.80;73.10;;;;;;5119562;28;20561;-83
2021/05/19 02:13:04;;;;;;;8.25;6.18;;;11.90;73.30;;;;;;5122610;28;20192;-83
2021/05/19 02:15:30;;;;;;;10.40;5.13;;;11.90;73.40;;;;;;5121181;28;20236;-83
2021/05/19 02:17:58;;;;;;;11.02;5.20;;;11.90;73.40;;;;;;5120410;28;20179;-83
2021/05/19 02:20:25;;;;;;;11.35;5.63;;;11.90;73.30;;;;;;5121124;28;20175;-82
2021/05/19 02:22:51;;;;;;;7.60;4.43;;;12.00;73.20;;;;;;5120796;28;20214;-83
2021/05/19 02:25:18;;;;;;;9.23;4.95;;;12.10;73.10;;;;;;5122787;28;20561;-83
2021/05/19 02:27:45;;;;;;;5.22;4.00;;;12.20;72.80;;;;;;5120451;28;20228;-83
2021/05/19 02:30:11;;;;;;;6.38;3.65;;;12.10;72.70;;;;;;5120767;28;20255;-83
2021/05/19 02:32:39;;;;;;;6.90;4.32;;;12.20;72.50;;;;;;5120238;28;20198;-83
2021/05/19 02:35:07;;;;;;;9.07;5.32;;;12.30;72.30;;;;;;5120298;28;20186;-83
2021/05/19 02:37:33;;;;;;;9.88;4.70;;;12.40;72.20;;;;;;5121359;28;20194;-82
2021/05/19 02:39:59;;;;;;;11.43;4.28;;;12.30;72.10;;;;;;5120853;28;20190;-82
2021/05/19 02:42:25;;;;;;;16.67;4.03;;;12.30;72.10;;;;;;5122553;28;20194;-82
2021/05/19 02:44:51;;;;;;;7.95;3.70;;;12.40;72.00;;;;;;5122543;28;20183;-82
2021/05/19 02:47:16;;;;;;;7.60;3.70;;;12.40;71.90;;;;;;5122237;28;20178;-82
2021/05/19 02:49:42;;;;;;;9.13;4.67;;;12.40;71.70;;;;;;5122610;28;20456;-82
2021/05/19 02:52:08;;;;;;;5.67;3.10;;;12.40;71.70;;;;;;5124830;28;20217;-82
2021/05/19 02:54:34;;;;;;;9.53;3.77;;;12.40;71.80;;;;;;5127607;28;20413;-84
2021/05/19 02:57:00;;;;;;;12.00;3.38;;;12.50;71.90;;;;;;5130229;28;20175;-84
2021/05/19 02:59:26;;;;;;;15.07;3.25;;;12.60;71.50;;;;;;5128375;28;20186;-83
2021/05/19 03:01:52;;;;;;;8.07;3.92;;;12.60;71.50;;;;;;5125421;28;20213;-83
2021/05/19 03:04:18;;;;;;;12.82;3.45;;;12.60;71.40;;;;;;5125662;28;20220;-83
2021/05/19 03:06:44;;;;;;;13.40;3.53;;;12.70;71.40;;;;;;5124125;28;20175;-84
2021/05/19 03:09:09;;;;;;;7.70;3.43;;;12.70;71.30;;;;;;5123041;28;20195;-84
2021/05/19 03:11:36;;;;;;;9.53;3.67;;;12.60;71.20;;;;;;5123306;28;20190;-83
2021/05/19 03:14:04;;;;;;;9.98;3.72;;;12.60;71.30;;;;;;5122104;28;20425;-84
2021/05/19 03:16:31;;;;;;;8.43;3.80;;;12.60;71.20;;;;;;5126654;28;20234;-85
2021/05/19 03:18:57;;;;;;;10.30;3.38;;;12.60;71.20;;;;;;5128301;28;20174;-84
2021/05/19 03:21:23;;;;;;;11.07;4.20;;;12.70;71.40;;;;;;5123317;28;20179;-83
2021/05/19 03:23:49;;;;;;;9.73;3.60;;;12.60;71.20;;;;;;5120573;28;20195;-83
2021/05/19 03:26:15;;;;;;;10.70;3.50;;;12.60;71.40;;;;;;5124105;28;20179;-84
2021/05/19 03:28:41;;;;;;;14.60;5.88;;;12.50;71.50;;;;;;5122551;28;20676;-84
2021/05/19 03:31:08;;;;;;;7.82;3.83;;;12.50;71.50;;;;;;5119515;28;20209;-85
2021/05/19 03:33:34;;;;;;;12.63;3.97;;;12.50;71.60;;;;;;5124263;28;20187;-82
2021/05/19 03:36:00;;;;;;;17.02;4.30;;;12.50;71.80;;;;;;5123388;28;20211;-83
2021/05/19 03:38:26;;;;;;;13.43;3.57;;;12.60;71.80;;;;;;5120544;28;20184;-83
2021/05/19 03:40:52;;;;;;;11.30;4.40;;;12.50;71.90;;;;;;5121164;28;20421;-82
2021/05/19 03:43:18;;;;;;;13.73;3.47;;;12.60;72.00;;;;;;5126687;28;20445;-82
2021/05/19 03:45:44;;;;;;;13.43;3.45;;;12.70;71.80;;;;;;5125299;28;20511;-82
2021/05/19 03:48:10;;;;;;;8.57;3.53;;;12.80;71.60;;;;;;5126715;28;20238;-82
2021/05/19 03:50:37;;;;;;;9.32;3.72;;;12.70;71.50;;;;;;5126199;28;20400;-82
2021/05/19 03:53:04;;;;;;;7.15;3.70;;;12.70;71.30;;;;;;5124244;28;20206;-82
2021/05/19 03:55:31;;;;;;;5.40;3.60;;;12.80;71.20;;;;;;5125778;28;20179;-83
2021/05/19 03:57:57;;;;;;;11.15;3.65;;;12.80;71.10;;;;;;5126312;28;20180;-82
2021/05/19 04:00:26;;;;;;;8.48;3.92;;;12.80;70.90;;;;;;5126704;28;20177;-82
2021/05/19 04:02:52;;;;;;;11.70;4.40;;;12.80;70.80;;;;;;5127225;28;20199;-83
2021/05/19 04:05:19;;;;;;;13.45;3.70;;;12.60;70.90;;;;;;5131470;28;20182;-83
2021/05/19 04:07:45;;;;;;;15.40;4.18;;;12.50;71.20;;;;;;5130598;28;20186;-83
2021/05/19 04:10:11;;;;;;;13.47;4.30;;;12.40;71.50;;;;;;5123201;28;20670;-83
2021/05/19 04:12:37;;;;;;;5.53;4.20;;;12.60;71.60;;;;;;5121510;28;20429;-83
2021/05/19 04:15:03;;;;;;;12.43;4.27;;;12.50;71.50;;;;;;5122369;28;20405;-83
2021/05/19 04:17:29;;;;;;;10.40;3.97;;;12.50;71.60;;;;;;5130091;28;20420;-83
2021/05/19 04:19:55;;;;;;;8.90;4.50;;;12.50;71.50;;;;;;5134825;28;20179;-83
2021/05/19 04:22:20;;;;;;;15.17;4.83;;;12.50;71.70;;;;;;5127176;28;20201;-83
2021/05/19 04:24:46;;;;;;;15.00;3.83;;;12.60;71.60;;;;;;5123128;28;20266;-84
2021/05/19 04:27:12;;;;;;;9.53;4.13;;;12.60;71.60;;;;;;5121198;28;20179;-84
2021/05/19 04:29:38;;;;;;;11.27;4.00;;;12.50;71.70;;;;;;5120398;28;20247;-84
2021/05/19 04:32:04;;;;;;;8.52;4.20;;;12.50;71.80;;;;;;5121114;28;20202;-84
2021/05/19 04:34:30;;;;;;;12.80;4.30;;;12.60;71.80;;;;;;5121060;28;20179;-83
2021/05/19 04:36:55;;;;;;;9.87;3.60;;;12.50;71.70;;;;;;5121576;28;20174;-83
2021/05/19 04:39:21;;;;;;;8.77;5.00;;;12.60;71.70;;;;;;5119239;28;20266;-84
2021/05/19 04:41:47;;;;;;;12.13;3.90;;;12.60;71.60;;;;;;5120039;28;20171;-84
2021/05/19 04:44:13;;;;;;;13.93;3.95;;;12.80;71.60;;;;;;5127297;28;20190;-84
2021/05/19 04:46:39;;;;;;;16.43;4.23;;;12.80;71.20;;;;;;5137758;28;20218;-83
2021/05/19 04:49:04;;;;;;;26.73;5.00;;;12.80;71.20;;;;;;5127099;28;20463;-84
2021/05/19 04:51:30;;;;;;;9.40;3.97;;;13.10;70.90;;;;;;5121410;28;20171;-84
2021/05/19 04:53:56;;;;;;;10.83;4.10;;;13.30;70.40;;;;;;5122064;28;20263;-83
2021/05/19 04:56:22;;;;;;;9.00;4.77;;;13.40;69.80;;;;;;5120688;28;20425;-84
2021/05/19 04:58:48;;;;;;;18.02;4.47;;;13.40;69.40;;;;;;5119938;28;20667;-83
2021/05/19 05:01:13;;;;;;;6.47;3.97;;;13.30;69.00;;;;;;5120267;28;20238;-84
2021/05/19 05:03:39;;;;;;;14.57;4.20;;;13.50;69.20;;;;;;5122814;28;20218;-84
2021/05/19 05:06:05;;;;;;;20.43;4.60;;;13.60;69.10;;;;;;5123318;28;20621;-83
2021/05/19 05:08:31;;;;;;;13.00;4.07;;;13.70;68.80;;;;;;5124174;28;20203;-84
2021/05/19 05:10:57;;;;;;;6.03;4.78;;;13.80;68.40;;;;;;5123308;28;20194;-84
2021/05/19 05:13:23;;;;;;;7.77;3.47;;;13.70;68.30;;;;;;5129287;28;20195;-84
2021/05/19 05:15:50;;;;;;;8.82;3.95;;;13.50;68.50;;;;;;5131800;28;20413;-84
2021/05/19 05:18:15;;;;;;;10.45;3.38;;;13.60;68.80;;;;;;5121814;28;20186;-85
2021/05/19 05:20:41;;;;;;;15.00;3.23;;;13.60;68.50;;;;;;5121572;28;20179;-84
2021/05/19 05:23:07;;;;;;;6.53;3.37;;;13.70;68.40;;;;;;5123759;28;20202;-85
2021/05/19 05:25:33;;;;;;;6.07;3.53;;;13.80;68.40;;;;;;5122893;28;20463;-86
2021/05/19 05:27:58;;;;;;;10.47;4.37;;;14.00;68.10;;;;;;5121414;28;20258;-85
2021/05/19 05:30:24;;;;;;;9.60;4.43;;;14.20;67.70;;;;;;5117442;28;20232;-86
2021/05/19 05:32:50;;;;;;;8.60;3.37;;;14.70;67.10;;;;;;5118896;28;20225;-85
2021/05/19 05:35:17;;;;;;;13.73;4.03;;;15.40;65.90;;;;;;5123504;28;20171;-86
2021/05/19 05:37:43;;;;;;;8.27;3.42;;;16.30;63.40;;;;;;5122137;28;20179;-85
2021/05/19 05:40:09;;;;;;;6.13;3.10;;;17.10;60.80;;;;;;5122791;28;20181;-86
2021/05/19 05:42:35;;;;;;;8.00;3.20;;;17.70;57.90;;;;;;5122351;28;20202;-86
2021/05/19 05:45:02;;;;;;;4.28;3.03;;;18.10;56.00;;;;;;5121893;28;20179;-86
2021/05/19 05:47:27;;;;;;;5.60;2.80;;;18.10;54.80;;;;;;5124832;28;20493;-86
2021/05/19 05:49:53;;;;;;;7.10;3.30;;;18.20;54.40;;;;;;5121934;28;20214;-86
2021/05/19 05:52:19;;;;;;;10.93;2.80;;;17.80;54.20;;;;;;5122137;28;20677;-86
2021/05/19 05:54:45;;;;;;;9.30;4.07;;;17.50;55.10;;;;;;5123527;28;20243;-86
2021/05/19 05:57:11;;;;;;;8.07;3.97;;;17.10;55.80;;;;;;5121887;28;20171;-86
2021/05/19 05:59:37;;;;;;;4.80;2.77;;;16.70;57.00;;;;;;5121941;28;20417;-86
2021/05/19 06:02:03;;;;;;;13.48;4.15;;;16.30;58.20;;;;;;5121683;28;20199;-86
2021/05/19 06:04:29;;;;;;;4.10;3.17;;;16.00;59.30;;;;;;5121873;28;20209;-86
2021/05/19 06:06:54;;;;;;;8.03;4.10;;;15.80;60.20;;;;;;5121559;28;20413;-85
2021/05/19 06:09:20;;;;;;;11.57;3.37;;;15.60;61.10;;;;;;5123024;28;20205;-86
2021/05/19 06:11:46;;;;;;;5.97;3.30;;;15.50;61.70;;;;;;5122489;28;20186;-86
2021/05/19 06:14:12;;;;;;;5.57;2.87;;;15.40;62.20;;;;;;5122635;28;20183;-85
2021/05/19 06:16:38;;;;;;;9.70;3.50;;;15.30;62.90;;;;;;5124089;28;20171;-86
2021/05/19 06:19:03;;;;;;;8.53;3.10;;;15.40;62.90;;;;;;5123553;28;20227;-86
2021/05/19 06:21:30;;;;;;;9.50;3.83;;;15.40;63.00;;;;;;5125358;28;20182;-86
2021/05/19 06:23:56;;;;;;;5.07;3.05;;;15.50;63.00;;;;;;5132490;28;20528;-86
2021/05/19 06:26:22;;;;;;;15.20;3.53;;;15.40;63.20;;;;;;5129380;28;20236;-86
2021/05/19 06:28:47;;;;;;;7.73;2.97;;;15.30;63.50;;;;;;5121462;28;20195;-86
2021/05/19 06:31:13;;;;;;;9.53;4.50;;;15.50;63.40;;;;;;5121553;28;20550;-86
2021/05/19 06:33:39;;;;;;;9.25;3.55;;;15.50;63.10;;;;;;5121324;28;20186;-87
2021/05/19 06:36:05;;;;;;;9.67;3.30;;;15.60;63.20;;;;;;5121496;28;20182;-86
2021/05/19 06:38:33;;;;;;;8.03;3.50;;;15.50;62.90;;;;;;5122728;28;20179;-86
2021/05/19 06:40:59;;;;;;;8.75;3.42;;;15.40;63.50;;;;;;5120507;28;20420;-87
2021/05/19 06:43:25;;;;;;;13.10;3.30;;;15.50;63.60;;;;;;5131972;28;20195;-87
2021/05/19 06:45:50;;;;;;;6.87;3.07;;;15.60;63.40;;;;;;5126532;28;20417;-86
2021/05/19 06:48:20;;;;;;;8.20;3.63;;;15.70;63.20;;;;;;5118733;28;20259;-86
2021/05/19 06:50:48;;;;;;;19.05;4.40;;;15.80;63.00;;;;;;5120453;28;20553;-87
2021/05/19 06:53:14;;;;;;;4.63;2.92;;;15.70;63.10;;;;;;5121814;28;20207;-87
2021/05/19 06:55:43;;;;;;;13.43;3.30;;;15.90;62.80;;;;;;5119165;28;20175;-86
2021/05/19 06:58:09;;;;;;;3.92;3.45;;;16.10;62.10;;;;;;5119128;28;20171;-85
2021/05/19 07:00:35;;;;;;;5.73;3.40;;;15.90;62.00;;;;;;5119672;28;20197;-85
2021/05/19 07:03:00;;;;;;;6.03;3.70;;;15.90;62.20;;;;;;5119184;28;20265;-87
2021/05/19 07:05:26;;;;;;;8.67;3.70;;;16.00;62.20;;;;;;5119358;28;20187;-87
2021/05/19 07:07:52;;;;;;;15.47;3.37;;;16.10;62.00;;;;;;5118989;28;20195;-87
2021/05/19 07:10:18;;;;;;;8.48;3.13;;;16.30;61.40;;;;;;5124017;28;20205;-87
2021/05/19 07:12:44;;;;;;;6.88;2.83;;;16.30;60.80;;;;;;5124008;28;20217;-86
2021/05/19 07:15:15;;;;;;;15.30;3.20;;;16.20;60.50;;;;;;5121713;28;20211;-86
2021/05/19 07:17:44;;;;;;;8.63;3.38;;;16.30;60.90;;;;;;5123859;28;20198;-85
2021/05/19 07:20:11;;;;;;;12.38;3.42;;;16.20;60.80;;;;;;5125587;28;20262;-85
2021/05/19 07:22:41;;;;;;;9.98;3.97;;;16.00;60.80;;;;;;5123057;28;20251;-85
2021/05/19 07:25:08;;;;;;;9.00;4.40;;;16.00;60.90;;;;;;5123847;28;20202;-84
2021/05/19 07:27:34;;;;;;;9.25;4.13;;;16.00;61.20;;;;;;5123184;28;20179;-83
2021/05/19 07:30:01;;;;;;;8.07;4.05;;;15.90;61.40;;;;;;5121034;28;20226;-84
2021/05/19 07:32:27;;;;;;;18.88;4.72;;;15.90;61.70;;;;;;5120584;28;20187;-84
2021/05/19 07:34:53;;;;;;;10.00;4.00;;;16.00;62.00;;;;;;5121406;28;20182;-84
2021/05/19 07:37:19;;;;;;;9.55;3.85;;;16.10;61.70;;;;;;5121525;28;20254;-83
2021/05/19 07:39:45;;;;;;;9.57;3.42;;;16.40;61.80;;;;;;5122056;28;20182;-84
2021/05/19 07:42:16;;;;;;;12.00;3.37;;;16.40;60.70;;;;;;5121678;28;20647;-86
2021/05/19 07:44:43;;;;;;;9.05;3.88;;;16.60;60.70;;;;;;5121980;28;20202;-86
2021/05/19 07:47:09;;;;;;;8.70;3.70;;;16.80;60.60;;;;;;5121563;28;20183;-86
2021/05/19 07:49:35;;;;;;;10.88;2.80;;;17.00;60.30;;;;;;5122510;28;20227;-86
2021/05/19 07:52:01;;;;;;;8.27;3.00;;;17.20;59.80;;;;;;5125324;28;20191;-87
2021/05/19 07:54:29;;;;;;;13.77;4.00;;;17.50;59.40;;;;;;5125346;28;20189;-87
2021/05/19 07:59:26;;;;;;;9.77;4.47;;;17.90;58.00;;;;;;5124836;28;20201;-87
2021/05/19 08:02:03;;;;;;;3.40;2.42;;;18.00;56.80;;;;;;5122223;28;20189;-87
2021/05/19 08:04:34;;;;;;;2.95;2.65;;;18.00;56.00;;;;;;5125358;28;20190;-88
2021/05/19 08:07:03;;;;;;;11.45;2.80;;;18.20;55.70;;;;;;5122702;28;20171;-87
2021/05/19 08:09:29;;;;;;;6.85;2.53;;;18.10;55.40;;;;;;5126551;28;20254;-87
2021/05/19 08:11:56;;;;;;;37.60;4.67;;;18.50;55.40;;;;;;5136527;28;20220;-88
2021/05/19 08:14:22;;;;;;;8.55;2.42;;;18.80;54.70;;;;;;5128690;28;20461;-87
2021/05/19 08:16:48;;;;;;;11.00;2.50;;;18.80;53.90;;;;;;5109908;28;20180;-88
2021/05/19 08:19:14;;;;;;;9.97;2.50;;;18.70;53.20;;;;;;5126059;28;20190;-85
2021/05/19 08:21:40;;;;;;;6.85;2.40;;;18.30;53.10;;;;;;5133910;28;20413;-86
2021/05/19 08:24:07;;;;;;;7.65;2.70;;;18.30;54.10;;;;;;5133629;28;20586;-85
2021/05/19 08:26:33;;;;;;;7.35;2.65;;;18.30;54.40;;;;;;5131039;28;20227;-86
2021/05/19 08:28:59;;;;;;;4.33;3.17;;;18.30;54.60;;;;;;5126807;28;20199;-86
2021/05/19 08:31:24;;;;;;;3.67;2.53;;;18.30;54.60;;;;;;5128150;28;20501;-86
2021/05/19 08:33:50;;;;;;;7.63;2.60;;;18.30;54.80;;;;;;5129157;28;20202;-85
2021/05/19 08:36:17;;;;;;;6.97;2.50;;;18.30;54.90;;;;;;5127926;28;20760;-86
2021/05/19 08:38:44;;;;;;;8.75;2.58;;;18.30;55.20;;;;;;5128077;28;20541;-86
2021/05/19 08:41:11;;;;;;;6.53;2.70;;;18.30;55.20;;;;;;5129003;28;20171;-86
2021/05/19 08:43:37;;;;;;;6.78;2.97;;;18.20;54.80;;;;;;5133436;28;20199;-85
2021/05/19 08:46:08;;;;;;;7.20;3.40;;;17.90;56.10;;;;;;5137359;28;20183;-85
2021/05/19 08:48:35;;;;;;;6.55;4.00;;;18.10;56.10;;;;;;5132129;28;20514;-85
2021/05/19 08:51:01;;;;;;;7.18;3.25;;;18.20;56.30;;;;;;5138886;28;20204;-84
2021/05/19 08:53:28;;;;;;;5.85;3.25;;;18.30;55.50;;;;;;5137598;28;20201;-85
2021/05/19 08:55:55;;;;;;;6.72;3.47;;;18.50;55.40;;;;;;5136489;28;20183;-85
2021/05/19 08:58:21;;;;;;;9.10;3.40;;;18.50;55.10;;;;;;5136587;28;20662;-86
2021/05/19 09:00:47;;;;;;;3.95;2.45;;;18.30;53.60;;;;;;5135123;28;20179;-85
2021/05/19 09:03:14;;;;;;;10.40;3.00;;;18.10;54.00;;;;;;5126017;28;20183;-85
2021/05/19 09:05:42;;;;;;;10.15;3.17;;;18.20;54.20;;;;;;5129892;28;20423;-85
2021/05/19 09:08:11;;;;;;;4.05;2.47;;;18.30;54.50;;;;;;5133037;28;20198;-85
2021/05/19 09:10:40;;;;;;;8.95;2.30;;;18.30;54.20;;;;;;5137102;28;20228;-86
2021/05/19 09:13:07;;;;;;;11.63;2.65;;;18.20;53.50;;;;;;5136358;28;20207;-86
2021/05/19 09:15:49;;;;;;;11.57;2.90;;;18.20;52.80;;;;;;5130448;28;20179;-86
2021/05/19 09:18:16;;;;;;;1.92;1.73;;;18.40;52.30;;;;;;5133564;28;20175;-85
2021/05/19 09:20:46;;;;;;;3.05;1.42;;;18.40;51.40;;;;;;5133538;28;20228;-85
2021/05/19 09:23:23;;;;;;;4.50;1.83;;;18.30;51.10;;;;;;5133347;28;20206;-88
2021/05/19 09:26:06;;;;;;;2.35;2.15;;;18.40;51.50;;;;;;5127565;28;20180;-88
2021/05/19 09:28:31;;;;;;;2.80;1.90;;;18.40;51.40;;;;;;5135471;28;20195;-87
2021/05/19 09:30:58;;;;;;;5.53;1.73;;;18.50;51.90;;;;;;5133572;28;20170;-88
2021/05/19 09:33:27;;;;;;;4.43;1.63;;;18.50;51.60;;;;;;5126602;28;20199;-88
2021/05/19 09:36:20;;;;;;;5.70;1.60;;;18.60;50.80;;;;;;5125228;28;20178;-88
2021/05/19 09:38:53;;;;;;;2.38;1.70;;;18.80;50.80;;;;;;5129799;28;20174;-88
2021/05/19 09:41:37;;;;;;;2.85;1.80;;;18.90;50.80;;;;;;5125412;28;20175;-87
2021/05/19 09:44:05;;;;;;;6.07;2.28;;;18.90;49.90;;;;;;5120164;28;20214;-86
2021/05/19 09:49:16;;;;;;;5.13;1.83;;;18.60;50.60;;;;;;5133784;28;20258;-89
2021/05/19 09:51:51;;;;;;;5.95;1.90;;;18.30;52.10;;;;;;5135481;28;20183;-89
2021/05/19 09:54:38;;;;;;;5.07;2.20;;;18.20;53.00;;;;;;5120787;28;20175;-89
2021/05/19 09:57:09;;;;;;;3.53;1.80;;;18.00;53.00;;;;;;5121242;28;20587;-84
2021/05/19 09:59:36;;;;;;;4.50;1.73;;;18.10;53.30;;;;;;5123837;28;20247;-85
2021/05/19 10:02:02;;;;;;;4.78;2.05;;;18.10;52.90;;;;;;5129562;28;20212;-85
2021/05/19 10:04:34;;;;;;;5.50;1.67;;;18.50;52.30;;;;;;5131118;28;20225;-84
2021/05/19 10:07:00;;;;;;;2.05;1.48;;;18.90;51.00;;;;;;5124468;28;20172;-84
2021/05/19 10:09:27;;;;;;;4.63;1.85;;;18.60;49.60;;;;;;5124245;28;20221;-84
2021/05/19 10:11:53;;;;;;;2.65;1.60;;;18.70;49.90;;;;;;5121614;28;20224;-84
2021/05/19 10:14:22;;;;;;;3.25;1.40;;;18.50;48.90;;;;;;5124007;28;20179;-84
2021/05/19 10:16:52;;;;;;;5.38;1.40;;;18.10;49.70;;;;;;5121281;28;20175;-84
2021/05/19 10:19:25;;;;;;;3.92;1.55;;;18.00;50.30;;;;;;5124169;28;20182;-84
2021/05/19 10:21:52;;;;;;;2.60;1.80;;;17.80;50.90;;;;;;5123402;28;20175;-85
2021/05/19 10:24:21;;;;;;;1.65;1.35;;;17.60;51.40;;;;;;5124385;28;20190;-86
2021/05/19 10:27:08;;;;;;;1.10;1.00;;;17.60;51.60;;;;;;5124610;28;20182;-86
2021/05/19 10:29:47;;;;;;;3.78;1.15;;;17.60;52.50;;;;;;5133837;28;20206;-85
2021/05/19 10:32:22;;;;;;;1.42;1.05;;;17.50;51.80;;;;;;5129300;28;20197;-85
2021/05/19 10:34:52;;;;;;;2.95;1.63;;;17.60;51.70;;;;;;5132963;28;20202;-85
2021/05/19 10:37:27;;;;;;;3.00;1.38;;;17.70;51.60;;;;;;5130540;28;20239;-85
2021/05/19 10:40:15;;;;;;;2.55;1.25;;;18.00;51.30;;;;;;5134169;28;20182;-85
2021/05/19 10:42:43;;;;;;;5.50;1.50;;;18.00;51.00;;;;;;5130609;28;20206;-85
2021/05/19 10:45:15;;;;;;;4.18;1.95;;;18.10;51.40;;;;;;5131088;28;20175;-85
2021/05/19 10:47:43;;;;;;;1.80;1.70;;;18.40;51.00;;;;;;5136483;28;20163;-85
2021/05/19 10:50:19;;;;;;;8.25;2.22;;;18.60;49.80;;;;;;5138359;28;20220;-85
2021/05/19 11:01:10;;;;;;;4.50;1.90;;;18.70;48.10;;;;;;5126518;28;20183;-86
2021/05/19 11:03:39;;;;;;;3.25;2.10;;;19.00;47.60;;;;;;5126997;28;20285;-85
2021/05/19 11:06:09;;;;;;;3.78;1.90;;;19.20;46.60;;;;;;5129211;28;20175;-85
2021/05/19 11:08:36;;;;;;;3.45;1.40;;;19.50;46.40;;;;;;5127401;28;20274;-85
2021/05/19 11:11:25;;;;;;;1.70;1.23;;;19.70;44.90;;;;;;5123453;28;20688;-86
2021/05/19 11:14:18;;;;;;;4.38;2.15;;;19.90;44.00;;;;;;5122344;28;20190;-85
2021/05/19 11:19:31;;;;;;;2.47;1.50;;;19.90;44.80;;;;;;5122927;28;20185;-85
2021/05/19 11:22:05;;;;;;;4.30;1.48;;;19.70;44.60;;;;;;5118072;28;20181;-86
2021/05/19 11:24:51;;;;;;;1.20;0.90;;;19.50;45.20;;;;;;5118177;28;20202;-86
2021/05/19 11:27:21;;;;;;;6.40;1.55;;;19.50;45.50;;;;;;5120211;28;20189;-85
2021/05/19 11:29:47;;;;;;;3.50;1.35;;;19.70;45.60;;;;;;5120798;28;20195;-86
2021/05/19 11:32:24;;;;;;;1.27;1.17;;;19.70;45.10;;;;;;5107225;28;20199;-85
2021/05/19 11:34:51;;;;;;;3.35;1.20;;;19.70;44.80;;;;;;5085688;28;20418;-87
2021/05/19 11:37:19;;;;;;;1.35;0.90;;;19.70;44.70;;;;;;5123802;28;20179;-84
2021/05/19 11:39:56;;;;;;;2.72;1.27;;;19.60;44.60;;;;;;5123177;28;20187;-84
2021/05/19 11:42:25;;;;;;;1.65;1.20;;;19.20;45.20;;;;;;5120735;28;20198;-85
2021/05/19 11:45:00;;;;;;;5.53;1.70;;;19.10;46.00;;;;;;5120145;28;20182;-85
2021/05/19 11:47:32;;;;;;;2.33;1.30;;;18.90;46.20;;;;;;5119403;28;20171;-86
2021/05/19 11:50:17;;;;;;;2.47;1.15;;;18.80;46.20;;;;;;5096073;28;20200;-87
2021/05/19 11:53:09;;;;;;;2.38;1.25;;;18.50;46.80;;;;;;5095930;28;20697;-87
2021/05/19 11:55:41;;;;;;;6.55;1.50;;;18.60;47.20;;;;;;5098606;28;20176;-85
2021/05/19 11:58:07;;;;;;;1.70;1.15;;;18.50;47.90;;;;;;5101453;28;20547;-85
2021/05/19 12:00:37;;;;;;;6.03;1.43;;;18.70;47.80;;;;;;5117152;28;20167;-86
2021/05/19 12:03:03;;;;;;;5.82;1.33;;;18.70;48.00;;;;;;5121869;28;20187;-84
2021/05/19 12:05:52;;;;;;;6.38;1.80;;;18.60;48.20;;;;;;5127840;28;20199;-84
2021/05/19 12:08:37;;;;;;;2.33;1.30;;;18.40;48.60;;;;;;5127876;28;20167;-84
2021/05/19 12:11:18;;;;;;;2.65;1.20;;;18.30;48.90;;;;;;5131645;28;20179;-84
2021/05/19 12:13:54;;;;;;;4.03;1.40;;;18.30;49.20;;;;;;5134360;28;20209;-85
2021/05/19 12:16:31;;;;;;;4.72;1.70;;;18.30;48.80;;;;;;5139056;28;20178;-83
2021/05/19 12:19:08;;;;;;;2.65;1.10;;;18.50;48.60;;;;;;5131899;28;20171;-84
2021/05/19 12:21:41;;;;;;;1.52;1.30;;;18.70;48.40;;;;;;5127504;28;20200;-83
2021/05/19 12:24:08;;;;;;;3.58;1.40;;;18.50;48.10;;;;;;5128228;28;20186;-83
2021/05/19 12:26:36;;;;;;;1.90;1.13;;;18.10;49.00;;;;;;5127373;28;20228;-83
2021/05/19 12:29:23;;;;;;;1.92;1.33;;;18.00;49.20;;;;;;5125896;28;20233;-84
2021/05/19 12:31:49;;;;;;;3.15;1.40;;;18.00;49.30;;;;;;5113952;28;20187;-85
2021/05/19 12:34:16;;;;;;;2.13;1.57;;;18.00;49.40;;;;;;5126916;28;20668;-85
2021/05/19 12:36:41;;;;;;;3.30;1.40;;;18.10;49.50;;;;;;5127708;27;20173;-84
2021/05/19 12:39:08;;;;;;;4.20;1.40;;;18.20;48.90;;;;;;5131686;28;20227;-87
2021/05/19 12:41:56;;;;;;;2.67;1.30;;;18.20;48.80;;;;;;5138977;28;20440;-86
2021/05/19 12:44:31;;;;;;;2.47;1.30;;;18.20;48.90;;;;;;5137615;28;20228;-86
2021/05/19 12:47:06;;;;;;;2.15;1.30;;;18.10;48.90;;;;;;5124729;28;20175;-89
2021/05/19 12:49:33;;;;;;;3.55;1.30;;;18.30;49.10;;;;;;5126560;28;20187;-89
2021/05/19 12:52:02;;;;;;;2.63;1.45;;;18.00;49.20;;;;;;5122898;28;20600;-89
2021/05/19 12:54:34;;;;;;;3.83;1.23;;;18.10;49.70;;;;;;5120168;28;20190;-87
2021/05/19 12:57:05;;;;;;;3.42;2.00;;;18.10;49.20;;;;;;5118589;28;20195;-86
2021/05/19 13:00:12;;;;;;;2.47;1.50;;;18.20;49.10;;;;;;5120776;28;20230;-86
2021/05/19 13:02:37;;;;;;;3.70;1.88;;;18.50;49.30;;;;;;5119648;28;20206;-85
2021/05/19 13:05:09;;;;;;;2.00;1.70;;;18.60;48.80;;;;;;5120432;28;20199;-85
2021/05/19 13:07:43;;;;;;;5.78;1.52;;;18.50;47.80;;;;;;5120623;28;20159;-86
2021/05/19 13:13:27;;;;;;;2.30;1.50;;;18.50;48.20;;;;;;5121021;28;20187;-87